Pefferlaw, Canada
Current Conditions -  °F | °C
As of 2:00 PM on Friday 24 Oct 2014 (Local Time) from CYKZ Reporting Station
Scattered Clouds Scattered Clouds  
Wind Chill: 57°   Ceiling: Unl
Heat Index: 57°   Visibility: 15mi
Dew Point: 37°   Wind: 6mph
Humidity: 48%   Direction: 290°WNW
Pressure: 29.97"   Gusts: NA
Location:  44.32°N, 79.2°W
Report Text: CYKZ 241800Z 29005KT 15SM SCT260 14/03 A2997 RMK CI2 SLP151
Loading
Personal Weather Stations






























Interactive Weather Map
Tropical Storm Tracking
New forecast layout! Learn more

10-Day Weather Forecast

Advertisements
Track Severe Weather on mobile